Morehouse, MO (63868)

10:24 AM CDT on July 11, 2014 (GMT -0500)
SEMO Electric Coop (KMOSIKES3) Elev 338 ft | 36.85 °N, 89.58 °W | Change Station

Current weather conditions updated 4 minutes ago

Clear
Clear
82.5 °F
Feels Like 86 °F
N
3.0
Wind Variable Wind from South
Gusts 3.0 mph

Today is forecast to be Warmer than yesterday.

Today
High -- | Low -- °F
--% Chance of Precip.
Yesterday
High -- | Low -- °F
Precip. -- in
5:48 AM 8:19 PM
Waxing Gibbous, 99% visible
Pressure 30.16 in
Visibility 10.0 miles
Clouds Clear
Heat Index 86 °F
Dew Point 70 °F
Humidity 66%
Rainfall 0.00 in
Snow Depth Not available.
UV 7 out of 12
Pollen 3.30 out of 12
Air Quality Not available.
Flu Activity Sporadic
METAR KCGI 111453Z 11006KT 10SM CLR 27/17 A3017 RMK AO2 SLP213 T02720172 50004

More Conditions Fewer Conditions

Pressure 30.16 in
Visibility 10.0 miles
Clouds Clear
Heat Index 86 °F
Dew Point 70 °F
Humidity 66%
Rainfall 0.00 in
Snow Depth Not available.
UV 7 out of 12
Pollen 3.30 out of 12
Air Quality Not available.
Flu Activity Sporadic
METAR KCGI 111453Z 11006KT 10SM CLR 27/17 A3017 RMK AO2 SLP213 T02720172 50004

More Conditions Fewer Conditions

10-Day Weather Forecast

Almanac

Astronomy

Jul. 11, 2014 Rise Set
Actual Time 5:48 AM CDT 8:19 PM CDT
Civil Twilight 5:18 AM CDT 8:49 PM CDT
Nautical Twilight 4:41 AM CDT 9:26 PM CDT
Astronomical Twilight 3:59 AM CDT 10:08 PM CDT
Moon 7:31 PM CDT 4:59 AM CDT
Length of Visible Light 15h 31m
Length of Day
14h 30m
Tomorrow will be 1m 2s shorter.
Waxing Gibbous, 99% of the Moon is Illuminated
Today
Waxing Gibbous
Jul 12
Full
Jul 18
Last Quarter
Jul 26
New
Aug 3
First Quarter

Today's Extremes

State Highs State Lows

Community

WunderPhotos

Upload Photos

1,732,499 photos uploaded!

WunderBlogs® & News

Nearby

Snow Depth

Station Depth Elevation
No new snow has been reported.

Earthquake Activity

City Distance Mag. Time & Date
No recent earthquake activity has been reported nearby.
Minimum magnitude displayed is 2.5.

Coastal Water Temperatures

Place Temperature
No Stations Reporting

Nearby Weather Stations

Station Location Temp. Heat Index Dew Point Humidity Wind Precip. Elev Updated Type
SEMO Electric Coop, Sikeston, MO 82.5 °F 86 °F 70 °F 66% South  at  3.0 mph 0.00 in / hr 338 ft 10:20 AM CDT Normal
Sikeston Ridge, Sikeston, MO 83.2 °F 87 °F 70 °F 65% SE  at  0.0 mph 0.00 in / hr 326 ft 10:21 AM CDT Normal
MesoWest DEXTER , Dexter, MO 76 °F 77 °F 67 °F 74% ENE  at  3 mph 0.00 in / hr 305 ft 9:00 AM CDT MADIS
Dexterweather.com, Dexter, MO 81.4 °F 85 °F 69 °F 67% SSW  at  3.0 mph 0.00 in / hr 420 ft 10:24 AM CDT Rapid Fire
MesoWest BERNIE , Dexter, MO 79 °F 77 °F - - North  at  - 0.00 in / hr 311 ft 7:25 AM CDT MADIS
MesoWest PERKNS , Perkins, MO 77 °F 75 °F - - North  at  - 0.00 in / hr 332 ft 8:50 AM CDT MADIS
MesoWest DEXTER , Dexter, MO 73 °F 71 °F - - North  at  - 0.00 in / hr 362 ft 9:00 AM CDT MADIS

Show More Stations Show Fewer Stations